Terminal Aerodrome Forecast
Issued by NWS Charleston, WV

Current Version | Previous Version | Text Only | Print | Product List | Glossary Off
Versions: 1 2 3 4 5 6 7 8 9 10 11 12 13 14 15 16 17 18 19 20 21 22 23 24 25

000
FTUS41 KRLX 281120
TAFPKB
TAF
KPKB 281120Z 2812/2912 00000KT 6SM BR OVC003
     FM281300 VRB03KT P6SM SCT080
     FM290200 00000KT 6SM BR FEW040
     FM290600 00000KT 3SM BR FEW040
     FM290800 00000KT 2SM BR FEW040
     FM291100 00000KT 3SM BR SCT040=

USA.gov is the U.S. government's official web portal to all federal, state and local government web resources and services.